sensor_id;sensor_type;location;lat;lon;timestamp;P1;durP1;ratioP1;P2;durP2;ratioP2
64235;SDS011;50564;47.402;9.740;2022-07-06T00:03:31;3.85;;;2.10;;
64235;SDS011;50564;47.402;9.740;2022-07-06T00:08:32;3.35;;;2.00;;
64235;SDS011;50564;47.402;9.740;2022-07-06T00:13:33;4.10;;;2.20;;
64235;SDS011;50564;47.402;9.740;2022-07-06T00:18:33;3.33;;;2.10;;
64235;SDS011;50564;47.402;9.740;2022-07-06T00:23:34;2.90;;;1.92;;
64235;SDS011;50564;47.402;9.740;2022-07-06T00:28:35;2.15;;;1.88;;
64235;SDS011;50564;47.402;9.740;2022-07-06T00:33:35;3.35;;;2.15;;
64235;SDS011;50564;47.402;9.740;2022-07-06T00:38:36;3.20;;;2.30;;
64235;SDS011;50564;47.402;9.740;2022-07-06T00:43:54;3.35;;;1.92;;
64235;SDS011;50564;47.402;9.740;2022-07-06T00:48:56;5.57;;;2.20;;
64235;SDS011;50564;47.402;9.740;2022-07-06T00:53:58;2.75;;;1.92;;
64235;SDS011;50564;47.402;9.740;2022-07-06T00:59:00;4.22;;;1.67;;
64235;SDS011;50564;47.402;9.740;2022-07-06T01:04:02;2.42;;;2.17;;
64235;SDS011;50564;47.402;9.740;2022-07-06T01:09:02;2.60;;;1.77;;
64235;SDS011;50564;47.402;9.740;2022-07-06T01:14:04;3.45;;;1.70;;
64235;SDS011;50564;47.402;9.740;2022-07-06T01:19:05;3.28;;;1.90;;
64235;SDS011;50564;47.402;9.740;2022-07-06T01:24:05;2.85;;;1.63;;
64235;SDS011;50564;47.402;9.740;2022-07-06T01:29:06;2.00;;;1.80;;
64235;SDS011;50564;47.402;9.740;2022-07-06T01:34:07;3.42;;;2.13;;
64235;SDS011;50564;47.402;9.740;2022-07-06T01:39:12;2.35;;;1.90;;
64235;SDS011;50564;47.402;9.740;2022-07-06T01:44:13;2.30;;;1.60;;
64235;SDS011;50564;47.402;9.740;2022-07-06T01:49:13;2.05;;;1.77;;
64235;SDS011;50564;47.402;9.740;2022-07-06T01:54:14;2.75;;;1.80;;
64235;SDS011;50564;47.402;9.740;2022-07-06T01:59:15;3.53;;;2.15;;
64235;SDS011;50564;47.402;9.740;2022-07-06T02:04:16;2.25;;;1.70;;
64235;SDS011;50564;47.402;9.740;2022-07-06T02:09:17;2.75;;;1.80;;
64235;SDS011;50564;47.402;9.740;2022-07-06T02:14:18;3.10;;;1.73;;
64235;SDS011;50564;47.402;9.740;2022-07-06T02:19:19;4.05;;;1.90;;
64235;SDS011;50564;47.402;9.740;2022-07-06T02:24:20;3.00;;;1.70;;
64235;SDS011;50564;47.402;9.740;2022-07-06T02:29:21;2.00;;;1.70;;
64235;SDS011;50564;47.402;9.740;2022-07-06T02:34:22;4.18;;;1.70;;
64235;SDS011;50564;47.402;9.740;2022-07-06T02:39:24;2.10;;;1.70;;
64235;SDS011;50564;47.402;9.740;2022-07-06T02:44:25;4.03;;;2.03;;
64235;SDS011;50564;47.402;9.740;2022-07-06T02:49:26;2.63;;;1.90;;
64235;SDS011;50564;47.402;9.740;2022-07-06T02:54:27;4.63;;;1.77;;
64235;SDS011;50564;47.402;9.740;2022-07-06T02:59:29;6.35;;;1.95;;
64235;SDS011;50564;47.402;9.740;2022-07-06T03:04:30;2.15;;;1.63;;
64235;SDS011;50564;47.402;9.740;2022-07-06T03:09:31;2.83;;;1.77;;
64235;SDS011;50564;47.402;9.740;2022-07-06T03:14:32;2.83;;;1.88;;
64235;SDS011;50564;47.402;9.740;2022-07-06T03:19:34;2.95;;;1.75;;
64235;SDS011;50564;47.402;9.740;2022-07-06T03:24:35;5.43;;;1.55;;
64235;SDS011;50564;47.402;9.740;2022-07-06T03:29:36;3.53;;;1.73;;
64235;SDS011;50564;47.402;9.740;2022-07-06T03:34:38;2.15;;;1.77;;
64235;SDS011;50564;47.402;9.740;2022-07-06T03:39:39;3.85;;;1.80;;
64235;SDS011;50564;47.402;9.740;2022-07-06T03:44:40;4.82;;;2.00;;
64235;SDS011;50564;47.402;9.740;2022-07-06T03:49:40;3.72;;;2.33;;
64235;SDS011;50564;47.402;9.740;2022-07-06T03:54:43;3.35;;;1.75;;
64235;SDS011;50564;47.402;9.740;2022-07-06T03:59:45;6.45;;;1.88;;
64235;SDS011;50564;47.402;9.740;2022-07-06T04:04:46;3.53;;;2.00;;
64235;SDS011;50564;47.402;9.740;2022-07-06T04:09:47;5.38;;;2.20;;
64235;SDS011;50564;47.402;9.740;2022-07-06T04:14:48;4.63;;;2.63;;
64235;SDS011;50564;47.402;9.740;2022-07-06T04:19:51;4.45;;;2.55;;
64235;SDS011;50564;47.402;9.740;2022-07-06T04:24:52;3.85;;;2.00;;
64235;SDS011;50564;47.402;9.740;2022-07-06T04:29:53;3.35;;;2.20;;
64235;SDS011;50564;47.402;9.740;2022-07-06T04:34:54;4.63;;;1.98;;
64235;SDS011;50564;47.402;9.740;2022-07-06T04:39:55;3.60;;;2.08;;
64235;SDS011;50564;47.402;9.740;2022-07-06T04:44:56;3.42;;;2.03;;
64235;SDS011;50564;47.402;9.740;2022-07-06T04:49:57;2.97;;;2.30;;
64235;SDS011;50564;47.402;9.740;2022-07-06T04:54:58;4.30;;;2.58;;
64235;SDS011;50564;47.402;9.740;2022-07-06T04:59:59;4.18;;;2.58;;
64235;SDS011;50564;47.402;9.740;2022-07-06T05:05:00;3.92;;;2.10;;
64235;SDS011;50564;47.402;9.740;2022-07-06T05:10:02;4.10;;;2.55;;
64235;SDS011;50564;47.402;9.740;2022-07-06T05:15:06;2.38;;;2.17;;
64235;SDS011;50564;47.402;9.740;2022-07-06T05:20:08;4.38;;;2.60;;
64235;SDS011;50564;47.402;9.740;2022-07-06T05:25:13;3.17;;;2.38;;
64235;SDS011;50564;47.402;9.740;2022-07-06T05:30:14;4.35;;;2.13;;
64235;SDS011;50564;47.402;9.740;2022-07-06T05:35:18;5.72;;;2.08;;
64235;SDS011;50564;47.402;9.740;2022-07-06T05:40:19;2.95;;;2.10;;
64235;SDS011;50564;47.402;9.740;2022-07-06T05:45:20;4.65;;;3.13;;
64235;SDS011;50564;47.402;9.740;2022-07-06T05:50:25;5.07;;;2.80;;
64235;SDS011;50564;47.402;9.740;2022-07-06T05:55:29;5.57;;;2.90;;
64235;SDS011;50564;47.402;9.740;2022-07-06T06:00:33;5.30;;;2.47;;
64235;SDS011;50564;47.402;9.740;2022-07-06T06:05:39;4.32;;;2.63;;
64235;SDS011;50564;47.402;9.740;2022-07-06T06:10:42;2.33;;;1.80;;
64235;SDS011;50564;47.402;9.740;2022-07-06T06:15:46;3.58;;;2.17;;
64235;SDS011;50564;47.402;9.740;2022-07-06T06:20:48;3.47;;;1.90;;
64235;SDS011;50564;47.402;9.740;2022-07-06T06:25:49;2.40;;;1.90;;
64235;SDS011;50564;47.402;9.740;2022-07-06T06:30:50;4.88;;;2.47;;
64235;SDS011;50564;47.402;9.740;2022-07-06T06:35:51;3.38;;;2.25;;
64235;SDS011;50564;47.402;9.740;2022-07-06T06:40:53;5.05;;;2.88;;
64235;SDS011;50564;47.402;9.740;2022-07-06T06:45:53;3.90;;;2.50;;
64235;SDS011;50564;47.402;9.740;2022-07-06T06:50:54;4.75;;;2.55;;
64235;SDS011;50564;47.402;9.740;2022-07-06T06:55:55;3.33;;;2.50;;
64235;SDS011;50564;47.402;9.740;2022-07-06T07:00:55;8.68;;;2.60;;
64235;SDS011;50564;47.402;9.740;2022-07-06T07:05:56;5.30;;;2.58;;
64235;SDS011;50564;47.402;9.740;2022-07-06T07:10:57;4.20;;;2.80;;
64235;SDS011;50564;47.402;9.740;2022-07-06T07:15:58;5.50;;;3.30;;
64235;SDS011;50564;47.402;9.740;2022-07-06T07:20:58;4.10;;;3.00;;
64235;SDS011;50564;47.402;9.740;2022-07-06T07:25:59;4.57;;;2.60;;
64235;SDS011;50564;47.402;9.740;2022-07-06T07:31:00;4.32;;;2.63;;
64235;SDS011;50564;47.402;9.740;2022-07-06T07:36:00;3.95;;;2.70;;
64235;SDS011;50564;47.402;9.740;2022-07-06T07:41:01;2.55;;;2.28;;
64235;SDS011;50564;47.402;9.740;2022-07-06T07:46:02;4.25;;;2.95;;
64235;SDS011;50564;47.402;9.740;2022-07-06T07:51:02;5.47;;;2.45;;
64235;SDS011;50564;47.402;9.740;2022-07-06T07:56:03;3.78;;;2.42;;
64235;SDS011;50564;47.402;9.740;2022-07-06T08:01:04;5.88;;;3.10;;
64235;SDS011;50564;47.402;9.740;2022-07-06T08:06:04;3.88;;;3.10;;
64235;SDS011;50564;47.402;9.740;2022-07-06T08:11:05;4.35;;;2.75;;
64235;SDS011;50564;47.402;9.740;2022-07-06T08:16:06;3.38;;;2.30;;
64235;SDS011;50564;47.402;9.740;2022-07-06T08:21:07;5.55;;;2.88;;
64235;SDS011;50564;47.402;9.740;2022-07-06T08:26:07;3.83;;;2.53;;
64235;SDS011;50564;47.402;9.740;2022-07-06T08:31:08;6.35;;;3.03;;
64235;SDS011;50564;47.402;9.740;2022-07-06T08:36:09;7.78;;;2.90;;
64235;SDS011;50564;47.402;9.740;2022-07-06T08:41:10;5.07;;;2.45;;
64235;SDS011;50564;47.402;9.740;2022-07-06T08:46:12;2.90;;;2.60;;
64235;SDS011;50564;47.402;9.740;2022-07-06T08:51:13;4.80;;;3.03;;
64235;SDS011;50564;47.402;9.740;2022-07-06T08:56:15;5.68;;;2.50;;
64235;SDS011;50564;47.402;9.740;2022-07-06T09:01:16;5.22;;;3.20;;
64235;SDS011;50564;47.402;9.740;2022-07-06T09:06:19;4.25;;;3.30;;
64235;SDS011;50564;47.402;9.740;2022-07-06T09:11:23;5.22;;;3.40;;
64235;SDS011;50564;47.402;9.740;2022-07-06T09:16:25;6.05;;;3.28;;
64235;SDS011;50564;47.402;9.740;2022-07-06T09:21:30;5.57;;;3.30;;
64235;SDS011;50564;47.402;9.740;2022-07-06T09:26:32;5.35;;;3.70;;
64235;SDS011;50564;47.402;9.740;2022-07-06T09:31:34;4.20;;;3.38;;
64235;SDS011;50564;47.402;9.740;2022-07-06T09:36:38;4.75;;;3.40;;
64235;SDS011;50564;47.402;9.740;2022-07-06T09:41:39;4.50;;;3.20;;
64235;SDS011;50564;47.402;9.740;2022-07-06T09:46:41;5.10;;;2.90;;
64235;SDS011;50564;47.402;9.740;2022-07-06T09:51:42;7.03;;;3.20;;
64235;SDS011;50564;47.402;9.740;2022-07-06T09:56:45;6.10;;;2.80;;
64235;SDS011;50564;47.402;9.740;2022-07-06T10:01:55;5.50;;;2.60;;
64235;SDS011;50564;47.402;9.740;2022-07-06T10:06:57;4.13;;;2.83;;
64235;SDS011;50564;47.402;9.740;2022-07-06T10:11:59;3.35;;;2.42;;
64235;SDS011;50564;47.402;9.740;2022-07-06T10:17:03;3.88;;;2.40;;
64235;SDS011;50564;47.402;9.740;2022-07-06T10:22:06;3.47;;;2.53;;
64235;SDS011;50564;47.402;9.740;2022-07-06T10:27:07;5.45;;;2.58;;
64235;SDS011;50564;47.402;9.740;2022-07-06T10:32:08;3.83;;;2.10;;
64235;SDS011;50564;47.402;9.740;2022-07-06T10:37:09;3.70;;;1.75;;
64235;SDS011;50564;47.402;9.740;2022-07-06T10:53:14;3.75;;;2.30;;
64235;SDS011;50564;47.402;9.740;2022-07-06T10:58:34;2.85;;;1.88;;
64235;SDS011;50564;47.402;9.740;2022-07-06T11:03:44;5.47;;;1.90;;
64235;SDS011;50564;47.402;9.740;2022-07-06T11:08:52;6.35;;;1.90;;
64235;SDS011;50564;47.402;9.740;2022-07-06T11:14:00;2.85;;;1.88;;
64235;SDS011;50564;47.402;9.740;2022-07-06T11:19:12;5.30;;;1.75;;
64235;SDS011;50564;47.402;9.740;2022-07-06T11:24:18;2.05;;;1.50;;
64235;SDS011;50564;47.402;9.740;2022-07-06T11:29:21;2.83;;;2.10;;
64235;SDS011;50564;47.402;9.740;2022-07-06T11:34:23;3.30;;;1.90;;
64235;SDS011;50564;47.402;9.740;2022-07-06T11:39:29;4.95;;;2.33;;
64235;SDS011;50564;47.402;9.740;2022-07-06T11:44:30;3.85;;;2.10;;
64235;SDS011;50564;47.402;9.740;2022-07-06T11:49:31;3.85;;;2.00;;
64235;SDS011;50564;47.402;9.740;2022-07-06T11:54:31;4.70;;;1.90;;
64235;SDS011;50564;47.402;9.740;2022-07-06T11:59:33;4.40;;;1.88;;
64235;SDS011;50564;47.402;9.740;2022-07-06T12:04:36;4.43;;;1.95;;
64235;SDS011;50564;47.402;9.740;2022-07-06T12:09:38;3.30;;;2.00;;
64235;SDS011;50564;47.402;9.740;2022-07-06T12:14:40;4.88;;;1.90;;
64235;SDS011;50564;47.402;9.740;2022-07-06T12:19:42;7.13;;;2.33;;
64235;SDS011;50564;47.402;9.740;2022-07-06T12:24:43;2.47;;;1.48;;
64235;SDS011;50564;47.402;9.740;2022-07-06T12:29:46;4.15;;;1.50;;
64235;SDS011;50564;47.402;9.740;2022-07-06T12:34:47;2.80;;;1.60;;
64235;SDS011;50564;47.402;9.740;2022-07-06T12:39:48;2.55;;;1.38;;
64235;SDS011;50564;47.402;9.740;2022-07-06T12:44:50;1.52;;;1.10;;
64235;SDS011;50564;47.402;9.740;2022-07-06T12:50:08;4.15;;;1.05;;
64235;SDS011;50564;47.402;9.740;2022-07-06T12:55:10;5.80;;;1.20;;
64235;SDS011;50564;47.402;9.740;2022-07-06T13:00:13;2.28;;;1.13;;
64235;SDS011;50564;47.402;9.740;2022-07-06T13:05:15;3.70;;;1.10;;
64235;SDS011;50564;47.402;9.740;2022-07-06T13:10:16;3.17;;;1.15;;
64235;SDS011;50564;47.402;9.740;2022-07-06T13:15:17;5.68;;;1.40;;
64235;SDS011;50564;47.402;9.740;2022-07-06T13:20:18;3.63;;;1.30;;
64235;SDS011;50564;47.402;9.740;2022-07-06T13:25:19;5.50;;;1.15;;
64235;SDS011;50564;47.402;9.740;2022-07-06T13:30:20;2.30;;;1.17;;
64235;SDS011;50564;47.402;9.740;2022-07-06T13:35:21;2.78;;;1.00;;
64235;SDS011;50564;47.402;9.740;2022-07-06T13:40:22;1.75;;;1.20;;
64235;SDS011;50564;47.402;9.740;2022-07-06T13:45:22;2.70;;;1.30;;
64235;SDS011;50564;47.402;9.740;2022-07-06T13:50:23;2.08;;;1.15;;
64235;SDS011;50564;47.402;9.740;2022-07-06T13:55:25;2.88;;;1.27;;
64235;SDS011;50564;47.402;9.740;2022-07-06T14:00:26;1.52;;;1.00;;
64235;SDS011;50564;47.402;9.740;2022-07-06T14:05:28;3.42;;;1.00;;
64235;SDS011;50564;47.402;9.740;2022-07-06T14:10:30;2.92;;;1.17;;
64235;SDS011;50564;47.402;9.740;2022-07-06T14:15:30;1.58;;;1.00;;
64235;SDS011;50564;47.402;9.740;2022-07-06T14:20:31;2.53;;;1.27;;
64235;SDS011;50564;47.402;9.740;2022-07-06T14:25:32;3.50;;;1.20;;
64235;SDS011;50564;47.402;9.740;2022-07-06T14:30:33;3.42;;;1.25;;
64235;SDS011;50564;47.402;9.740;2022-07-06T14:35:38;2.40;;;1.20;;
64235;SDS011;50564;47.402;9.740;2022-07-06T14:40:40;3.45;;;1.20;;
64235;SDS011;50564;47.402;9.740;2022-07-06T14:45:42;3.40;;;1.38;;
64235;SDS011;50564;47.402;9.740;2022-07-06T14:50:44;2.17;;;1.17;;
64235;SDS011;50564;47.402;9.740;2022-07-06T14:55:45;2.03;;;0.90;;
64235;SDS011;50564;47.402;9.740;2022-07-06T15:00:47;2.10;;;1.20;;
64235;SDS011;50564;47.402;9.740;2022-07-06T15:05:48;2.78;;;0.85;;
64235;SDS011;50564;47.402;9.740;2022-07-06T15:10:48;1.83;;;1.02;;
64235;SDS011;50564;47.402;9.740;2022-07-06T15:15:49;2.15;;;1.10;;
64235;SDS011;50564;47.402;9.740;2022-07-06T15:20:50;2.72;;;1.08;;
64235;SDS011;50564;47.402;9.740;2022-07-06T15:25:51;1.52;;;0.98;;
64235;SDS011;50564;47.402;9.740;2022-07-06T15:30:54;3.60;;;1.10;;
64235;SDS011;50564;47.402;9.740;2022-07-06T15:35:55;2.47;;;1.17;;
64235;SDS011;50564;47.402;9.740;2022-07-06T15:40:55;3.42;;;1.30;;
64235;SDS011;50564;47.402;9.740;2022-07-06T15:46:00;2.15;;;1.20;;
64235;SDS011;50564;47.402;9.740;2022-07-06T15:51:03;2.92;;;1.20;;
64235;SDS011;50564;47.402;9.740;2022-07-06T15:56:04;1.50;;;0.90;;
64235;SDS011;50564;47.402;9.740;2022-07-06T16:01:05;1.75;;;1.10;;
64235;SDS011;50564;47.402;9.740;2022-07-06T16:06:06;4.32;;;1.08;;
64235;SDS011;50564;47.402;9.740;2022-07-06T16:11:06;2.33;;;1.33;;
64235;SDS011;50564;47.402;9.740;2022-07-06T16:16:07;4.40;;;1.58;;
64235;SDS011;50564;47.402;9.740;2022-07-06T16:21:08;2.40;;;1.08;;
64235;SDS011;50564;47.402;9.740;2022-07-06T16:26:09;3.38;;;1.15;;
64235;SDS011;50564;47.402;9.740;2022-07-06T16:31:09;3.22;;;1.30;;
64235;SDS011;50564;47.402;9.740;2022-07-06T16:36:10;2.58;;;1.30;;
64235;SDS011;50564;47.402;9.740;2022-07-06T16:41:12;3.10;;;1.13;;
64235;SDS011;50564;47.402;9.740;2022-07-06T16:46:14;4.43;;;1.10;;
64235;SDS011;50564;47.402;9.740;2022-07-06T16:51:14;1.73;;;1.20;;
64235;SDS011;50564;47.402;9.740;2022-07-06T16:56:15;1.38;;;1.05;;
64235;SDS011;50564;47.402;9.740;2022-07-06T17:01:16;2.08;;;1.27;;
64235;SDS011;50564;47.402;9.740;2022-07-06T17:06:16;1.58;;;1.10;;
64235;SDS011;50564;47.402;9.740;2022-07-06T17:11:17;2.63;;;1.10;;
64235;SDS011;50564;47.402;9.740;2022-07-06T17:16:17;1.88;;;1.25;;
64235;SDS011;50564;47.402;9.740;2022-07-06T17:21:18;2.50;;;1.27;;
64235;SDS011;50564;47.402;9.740;2022-07-06T17:26:19;2.92;;;1.33;;
64235;SDS011;50564;47.402;9.740;2022-07-06T17:31:20;4.20;;;2.63;;
64235;SDS011;50564;47.402;9.740;2022-07-06T17:36:20;3.72;;;1.60;;
64235;SDS011;50564;47.402;9.740;2022-07-06T17:41:21;5.07;;;2.90;;
64235;SDS011;50564;47.402;9.740;2022-07-06T17:46:22;3.05;;;1.92;;
64235;SDS011;50564;47.402;9.740;2022-07-06T17:51:22;3.42;;;1.60;;
64235;SDS011;50564;47.402;9.740;2022-07-06T17:56:23;5.55;;;2.60;;
64235;SDS011;50564;47.402;9.740;2022-07-06T18:01:24;2.35;;;1.73;;
64235;SDS011;50564;47.402;9.740;2022-07-06T18:06:24;4.90;;;1.88;;
64235;SDS011;50564;47.402;9.740;2022-07-06T18:11:25;2.92;;;2.03;;
64235;SDS011;50564;47.402;9.740;2022-07-06T18:16:26;3.45;;;1.90;;
64235;SDS011;50564;47.402;9.740;2022-07-06T18:21:27;5.07;;;2.22;;
64235;SDS011;50564;47.402;9.740;2022-07-06T18:26:28;6.53;;;2.80;;
64235;SDS011;50564;47.402;9.740;2022-07-06T18:31:29;3.45;;;2.30;;
64235;SDS011;50564;47.402;9.740;2022-07-06T18:36:29;3.58;;;2.28;;
64235;SDS011;50564;47.402;9.740;2022-07-06T18:41:30;4.15;;;2.53;;
64235;SDS011;50564;47.402;9.740;2022-07-06T18:46:31;5.57;;;2.25;;
64235;SDS011;50564;47.402;9.740;2022-07-06T18:51:31;3.78;;;2.17;;
64235;SDS011;50564;47.402;9.740;2022-07-06T18:56:34;3.92;;;2.47;;
64235;SDS011;50564;47.402;9.740;2022-07-06T19:01:34;5.25;;;2.55;;
64235;SDS011;50564;47.402;9.740;2022-07-06T19:06:35;4.25;;;2.28;;
64235;SDS011;50564;47.402;9.740;2022-07-06T19:11:36;3.38;;;2.15;;
64235;SDS011;50564;47.402;9.740;2022-07-06T19:16:37;2.97;;;2.20;;
64235;SDS011;50564;47.402;9.740;2022-07-06T19:21:38;4.53;;;2.20;;
64235;SDS011;50564;47.402;9.740;2022-07-06T19:26:39;4.38;;;2.38;;
64235;SDS011;50564;47.402;9.740;2022-07-06T19:31:39;3.20;;;2.15;;
64235;SDS011;50564;47.402;9.740;2022-07-06T19:36:40;5.85;;;2.20;;
64235;SDS011;50564;47.402;9.740;2022-07-06T19:41:42;4.85;;;2.10;;
64235;SDS011;50564;47.402;9.740;2022-07-06T19:46:45;4.55;;;2.33;;
64235;SDS011;50564;47.402;9.740;2022-07-06T19:51:46;3.08;;;2.10;;
64235;SDS011;50564;47.402;9.740;2022-07-06T19:56:47;3.17;;;2.10;;
64235;SDS011;50564;47.402;9.740;2022-07-06T20:01:48;3.35;;;2.10;;
64235;SDS011;50564;47.402;9.740;2022-07-06T20:06:49;5.60;;;2.80;;
64235;SDS011;50564;47.402;9.740;2022-07-06T20:11:49;2.47;;;2.20;;
64235;SDS011;50564;47.402;9.740;2022-07-06T20:16:50;4.57;;;2.80;;
64235;SDS011;50564;47.402;9.740;2022-07-06T20:21:53;4.38;;;2.33;;
64235;SDS011;50564;47.402;9.740;2022-07-06T20:26:53;4.45;;;2.97;;
64235;SDS011;50564;47.402;9.740;2022-07-06T20:31:54;3.97;;;2.78;;
64235;SDS011;50564;47.402;9.740;2022-07-06T20:36:55;6.32;;;2.90;;
64235;SDS011;50564;47.402;9.740;2022-07-06T20:41:55;3.65;;;2.50;;
64235;SDS011;50564;47.402;9.740;2022-07-06T20:46:56;2.33;;;2.13;;
64235;SDS011;50564;47.402;9.740;2022-07-06T20:51:56;4.30;;;2.40;;
64235;SDS011;50564;47.402;9.740;2022-07-06T20:56:57;2.85;;;2.42;;
64235;SDS011;50564;47.402;9.740;2022-07-06T21:01:59;3.63;;;2.45;;
64235;SDS011;50564;47.402;9.740;2022-07-06T21:06:59;4.30;;;2.40;;
64235;SDS011;50564;47.402;9.740;2022-07-06T21:12:00;5.30;;;2.60;;
64235;SDS011;50564;47.402;9.740;2022-07-06T21:17:01;3.65;;;2.35;;
64235;SDS011;50564;47.402;9.740;2022-07-06T21:22:01;3.80;;;2.35;;
64235;SDS011;50564;47.402;9.740;2022-07-06T21:27:02;2.70;;;2.30;;
64235;SDS011;50564;47.402;9.740;2022-07-06T21:32:03;4.30;;;2.50;;
64235;SDS011;50564;47.402;9.740;2022-07-06T21:37:04;4.15;;;2.88;;
64235;SDS011;50564;47.402;9.740;2022-07-06T21:42:05;3.50;;;2.42;;
64235;SDS011;50564;47.402;9.740;2022-07-06T21:47:05;11.88;;;3.20;;
64235;SDS011;50564;47.402;9.740;2022-07-06T21:52:06;4.40;;;2.72;;
64235;SDS011;50564;47.402;9.740;2022-07-06T21:57:07;5.35;;;2.80;;
64235;SDS011;50564;47.402;9.740;2022-07-06T22:02:08;4.22;;;2.90;;
64235;SDS011;50564;47.402;9.740;2022-07-06T22:07:09;4.60;;;2.90;;
64235;SDS011;50564;47.402;9.740;2022-07-06T22:12:10;4.18;;;2.63;;
64235;SDS011;50564;47.402;9.740;2022-07-06T22:17:10;4.75;;;2.88;;
64235;SDS011;50564;47.402;9.740;2022-07-06T22:22:11;4.70;;;2.63;;
64235;SDS011;50564;47.402;9.740;2022-07-06T22:27:11;4.10;;;2.90;;
64235;SDS011;50564;47.402;9.740;2022-07-06T22:32:12;6.45;;;3.08;;
64235;SDS011;50564;47.402;9.740;2022-07-06T22:37:13;4.53;;;2.78;;
64235;SDS011;50564;47.402;9.740;2022-07-06T22:42:13;6.22;;;3.13;;
64235;SDS011;50564;47.402;9.740;2022-07-06T22:47:14;6.25;;;3.20;;
64235;SDS011;50564;47.402;9.740;2022-07-06T22:52:15;6.55;;;3.60;;
64235;SDS011;50564;47.402;9.740;2022-07-06T22:57:15;5.82;;;3.42;;
64235;SDS011;50564;47.402;9.740;2022-07-06T23:02:16;5.75;;;3.35;;
64235;SDS011;50564;47.402;9.740;2022-07-06T23:07:17;6.05;;;3.45;;
64235;SDS011;50564;47.402;9.740;2022-07-06T23:12:17;6.18;;;3.28;;
64235;SDS011;50564;47.402;9.740;2022-07-06T23:17:18;4.00;;;3.25;;
64235;SDS011;50564;47.402;9.740;2022-07-06T23:22:18;5.60;;;3.35;;
64235;SDS011;50564;47.402;9.740;2022-07-06T23:27:19;6.63;;;3.30;;
64235;SDS011;50564;47.402;9.740;2022-07-06T23:32:20;5.75;;;3.20;;
64235;SDS011;50564;47.402;9.740;2022-07-06T23:37:20;4.85;;;3.55;;
64235;SDS011;50564;47.402;9.740;2022-07-06T23:42:21;5.35;;;3.50;;
64235;SDS011;50564;47.402;9.740;2022-07-06T23:47:22;4.55;;;3.65;;
64235;SDS011;50564;47.402;9.740;2022-07-06T23:52:22;6.35;;;2.97;;
64235;SDS011;50564;47.402;9.740;2022-07-06T23:57:23;3.40;;;3.00;;
